Track Русакова Александра

Time Latitude Longitude Accuracy (66% radius in meters) Altitude (meters) Speed (km/hour) Bearing (degrees) Battery (%) GPS flag
11:19:45 60.371409 29.556714 24 77 3.3517298698425 17.519128799438 44 0 delete
11:19:33 60.371409 29.556714 24 77 3.3517298698425 17.519128799438 44 0 delete
10:19:11 60.371447 29.556732 32 75 3.4545509815216 16.844612121582 44 1 delete
10:19:10 60.371409 29.556714 24 77 3.3517298698425 17.519128799438 44 1 delete
10:19:08 60.371352 29.556676 24 77 3.3517298698425 17.519128799438 44 1 delete
10:19:07 60.371320 29.556654 24 76 3.1850826740265 16.576686859131 44 1 delete
10:19:06 60.371289 29.556635 24 76 3.018875837326 16.307149887085 44 1 delete
10:19:03 60.371212 29.556597 32 79 2.7624001502991 16.749702453613 44 1 delete
10:19:01 60.371163 29.556573 24 78 2.7658720016479 15.926661491394 44 1 delete
10:18:57 60.371077 29.556549 24 76 0 60.943035125732 44 1 delete
10:18:55 60.370976 29.556499 24 67 0 60.943035125732 44 1 delete
10:18:52 60.370976 29.556499 24 67 0 60.943035125732 44 1 delete
10:18:43 60.370896 29.556392 32 76 0 60.943035125732 44 1 delete
10:18:35 60.370896 29.556392 48 76 0 60.943035125732 47 1 delete
11:18:33 60.373170 29.561978 32 84 5.8449287414551 57.068141937256 47 0 delete
11:18:20 60.373170 29.561978 32 84 5.8449287414551 57.068141937256 47 0 delete
11:18:07 60.373170 29.561978 32 84 5.8449287414551 57.068141937256 47 0 delete
11:17:54 60.373170 29.561978 32 84 5.8449287414551 57.068141937256 47 0 delete
11:17:42 60.373170 29.561978 32 84 5.8449287414551 57.068141937256 47 0 delete
11:17:29 60.373170 29.561978 32 84 5.8449287414551 57.068141937256 47 0 delete
11:17:16 60.373170 29.561978 32 84 5.8449287414551 57.068141937256 47 0 delete
11:17:02 60.373170 29.561978 32 84 5.8449287414551 57.068141937256 47 0 delete
11:16:49 60.373170 29.561978 32 84 5.8449287414551 57.068141937256 47 0 delete
10:16:22 60.373170 29.561978 32 84 5.8449287414551 57.068141937256 47 1 delete
10:16:19 60.373038 29.561538 32 70 5.5183534622192 57.24861907959 47 1 delete
10:16:18 60.372994 29.561385 32 69 5.3736581802368 55.608257293701 47 1 delete
10:16:17 60.372963 29.561298 32 69 5.3736581802368 55.608257293701 47 1 delete
10:16:16 60.372927 29.561197 32 71 5.3137454986572 56.207000732422 47 1 delete
10:16:15 60.372892 29.561100 32 72 5.2651090621948 57.386302947998 47 1 delete
10:16:14 60.372857 29.561003 32 73 5.2125177383423 58.654552459717 47 1 delete
10:16:13 60.372824 29.560901 32 74 5.1523714065552 59.548309326172 47 1 delete
10:16:12 60.372791 29.560790 32 74 5.0702652931213 59.349952697754 47 1 delete
10:16:11 60.372759 29.560682 32 72 4.9724488258362 58.931121826172 47 1 delete
10:16:10 60.372728 29.560569 32 67 4.8511114120483 56.568702697754 47 1 delete
10:16:09 60.372700 29.560486 32 62 4.8148293495178 56.238368988037 47 1 delete
10:16:07 60.372644 29.560328 24 66 4.7666621208191 55.555263519287 47 1 delete
10:16:06 60.372614 29.560249 24 58 4.7511858940125 55.555263519287 47 1 delete
10:16:05 60.372585 29.560167 24 62 4.7335019111633 55.555263519287 47 1 delete
10:16:03 60.372526 29.559983 24 56 4.7215871810913 56.065654754639 47 1 delete
10:16:02 60.372500 29.559904 24 54 4.7318539619446 55.555263519287 47 1 delete
10:16:01 60.372476 29.559817 24 60 4.7421350479126 52.373054504395 47 1 delete
10:16:00 60.372447 29.559728 32 65 4.7584295272827 53.844314575195 47 1 delete
10:15:59 60.372418 29.559645 32 65 4.7765345573425 51.119697570801 47 1 delete
10:15:58 60.372384 29.559552 32 70 4.7210702896118 50.348434448242 47 1 delete
10:15:57 60.372343 29.559454 32 72 4.6301665306091 50.345146179199 47 1 delete
10:15:56 60.372302 29.559354 24 73 4.5295743942261 50.338485717773 47 1 delete
10:15:54 60.372218 29.559154 32 81 4.2901878356934 49.268711090088 47 1 delete
10:15:53 60.372174 29.559054 32 61 4.1689810752869 49.981910705566 47 1 delete
10:15:52 60.372140 29.558986 32 55 4.0798535346985 51.391258239746 47 1 delete
10:15:50 60.372081 29.558872 24 53 3.8954126834869 53.076583862305 47 1 delete